Time;durP1;ratioP1;P1;durP2;ratioP2;P2;SDS_P1;SDS_P2;PMS_P1;PMS_P2;Temp;Humidity;BMP_temperature;BMP_pressure;BME280_temperature;BME280_humidity;BME280_pressure;Samples;Min_cycle;Max_cycle;Signal;HPM_P1;HPM_P2
2022/04/12 00:01:20;;;;;;;2.33;2.13;;;;;;;;;;5129063;27;20200;-76
2022/04/12 00:03:47;;;;;;;2.08;1.88;;;;;;;;;;5126774;27;20610;-77
2022/04/12 00:06:14;;;;;;;4.90;2.50;;;;;;;;;;5112390;27;20619;-75
2022/04/12 00:08:42;;;;;;;2.47;2.28;;;;;;;;;;5112778;27;20199;-75
2022/04/12 00:11:09;;;;;;;3.38;2.88;;;;;;;;;;5129562;27;20222;-75
2022/04/12 00:13:36;;;;;;;3.83;2.40;;;;;;;;;;5120954;27;20196;-75
2022/04/12 00:16:04;;;;;;;3.53;2.90;;;;;;;;;;5124856;27;20195;-76
2022/04/12 00:21:16;;;;;;;8.40;2.80;;;;;;;;;;5123999;27;20271;-77
2022/04/12 00:23:44;;;;;;;2.75;2.50;;;;;;;;;;5125501;27;20273;-77
2022/04/12 00:26:11;;;;;;;3.17;2.47;;;;;;;;;;5124588;27;20682;-77
2022/04/12 00:28:40;;;;;;;2.70;2.50;;;;;;;;;;5124812;27;20211;-77
2022/04/12 00:31:07;;;;;;;3.25;2.40;;;;;;;;;;5126551;27;20196;-77
2022/04/12 00:33:35;;;;;;;3.50;3.10;;;;;;;;;;5111884;28;20185;-77
2022/04/12 00:36:04;;;;;;;3.15;2.60;;;;;;;;;;5122499;27;20192;-77
2022/04/12 00:38:33;;;;;;;2.85;2.55;;;;;;;;;;5124167;27;20242;-76
2022/04/12 00:41:02;;;;;;;2.70;2.50;;;;;;;;;;5111676;28;20237;-78
2022/04/12 00:43:30;;;;;;;2.50;2.30;;;;;;;;;;5121958;27;20200;-76
2022/04/12 00:46:00;;;;;;;2.67;2.45;;;;;;;;;;5127616;27;20219;-76
2022/04/12 00:48:27;;;;;;;2.63;2.42;;;;;;;;;;5119511;27;20228;-76
2022/04/12 00:50:55;;;;;;;2.42;2.20;;;;;;;;;;5125206;27;20213;-77
2022/04/12 00:53:22;;;;;;;3.15;2.92;;;;;;;;;;5120161;27;20223;-76
2022/04/12 00:55:49;;;;;;;2.83;2.15;;;;;;;;;;5114501;27;20185;-77
2022/04/12 00:58:18;;;;;;;2.58;1.90;;;;;;;;;;5124654;27;20195;-77
2022/04/12 01:00:46;;;;;;;3.55;2.45;;;;;;;;;;5123932;27;20202;-77
2022/04/12 01:03:13;;;;;;;4.35;2.80;;;;;;;;;;5124080;27;20667;-77
2022/04/12 01:05:40;;;;;;;2.85;2.58;;;;;;;;;;5115783;27;20551;-76
2022/04/12 01:08:08;;;;;;;2.72;2.47;;;;;;;;;;5131633;27;20204;-77
2022/04/12 01:10:37;;;;;;;3.63;3.10;;;;;;;;;;5119488;27;20208;-75
2022/04/12 01:13:04;;;;;;;4.00;2.70;;;;;;;;;;5115393;27;20667;-75
2022/04/12 01:15:32;;;;;;;3.35;2.60;;;;;;;;;;5121368;27;20200;-75
2022/04/12 01:17:59;;;;;;;2.95;2.75;;;;;;;;;;5150063;27;20630;-76
2022/04/12 01:20:30;;;;;;;3.05;2.35;;;;;;;;;;5112803;27;20648;-76
2022/04/12 01:23:00;;;;;;;2.67;2.42;;;;;;;;;;5127084;28;20238;-75
2022/04/12 01:25:28;;;;;;;2.60;2.40;;;;;;;;;;5121091;28;20715;-76
2022/04/12 01:27:56;;;;;;;3.88;2.92;;;;;;;;;;5123130;27;20212;-75
2022/04/12 01:30:23;;;;;;;3.50;3.20;;;;;;;;;;5112396;28;20670;-76
2022/04/12 01:32:50;;;;;;;2.63;2.42;;;;;;;;;;5121195;28;20266;-76
2022/04/12 01:35:17;;;;;;;3.75;2.63;;;;;;;;;;5122561;28;20208;-77
2022/04/12 01:37:44;;;;;;;3.13;2.83;;;;;;;;;;5123878;28;20197;-76
2022/04/12 01:40:11;;;;;;;3.95;3.10;;;;;;;;;;5127988;28;20198;-75
2022/04/12 01:42:40;;;;;;;3.60;2.45;;;;;;;;;;5128403;27;20200;-75
2022/04/12 01:45:08;;;;;;;3.00;2.78;;;;;;;;;;5126770;28;20212;-75
2022/04/12 01:47:35;;;;;;;3.45;2.72;;;;;;;;;;5128993;27;20838;-75
2022/04/12 01:50:02;;;;;;;3.33;3.03;;;;;;;;;;5128968;28;20203;-75
2022/04/12 01:52:29;;;;;;;2.80;2.60;;;;;;;;;;5130586;28;20203;-75
2022/04/12 01:54:56;;;;;;;4.15;2.85;;;;;;;;;;5112947;28;20231;-77
2022/04/12 01:57:23;;;;;;;4.10;3.47;;;;;;;;;;5123600;28;20579;-75
2022/04/12 01:59:52;;;;;;;3.33;2.38;;;;;;;;;;5127762;27;20185;-76
2022/04/12 02:02:19;;;;;;;2.60;2.40;;;;;;;;;;5131874;27;20196;-74
2022/04/12 02:04:46;;;;;;;2.88;2.63;;;;;;;;;;5122367;27;20567;-75
2022/04/12 02:07:13;;;;;;;3.10;2.85;;;;;;;;;;5123414;27;20574;-77
2022/04/12 02:09:40;;;;;;;5.30;3.20;;;;;;;;;;5128237;27;20223;-75
2022/04/12 02:12:07;;;;;;;3.83;3.40;;;;;;;;;;5126804;27;20219;-76
2022/04/12 02:14:34;;;;;;;2.35;2.15;;;;;;;;;;5134062;27;20218;-77
2022/04/12 02:17:03;;;;;;;4.80;2.85;;;;;;;;;;5133365;27;20199;-75
2022/04/12 02:19:30;;;;;;;4.40;2.92;;;;;;;;;;5123651;27;20250;-75
2022/04/12 02:21:57;;;;;;;2.78;2.58;;;;;;;;;;5124373;27;20204;-76
2022/04/12 02:24:24;;;;;;;3.40;3.10;;;;;;;;;;5133816;27;20200;-76
2022/04/12 02:26:51;;;;;;;3.60;3.08;;;;;;;;;;5114406;27;20219;-76
2022/04/12 02:29:18;;;;;;;4.82;2.50;;;;;;;;;;5128183;27;20219;-75
2022/04/12 02:31:45;;;;;;;4.70;3.30;;;;;;;;;;5135119;27;20203;-76
2022/04/12 02:34:14;;;;;;;4.05;2.97;;;;;;;;;;5126391;27;20559;-76
2022/04/12 02:36:41;;;;;;;2.42;2.22;;;;;;;;;;5125182;27;20199;-76
2022/04/12 02:39:08;;;;;;;4.40;2.65;;;;;;;;;;5114520;27;20200;-76
2022/04/12 02:41:36;;;;;;;3.10;2.80;;;;;;;;;;5119877;27;20199;-76
2022/04/12 02:44:03;;;;;;;3.13;2.47;;;;;;;;;;5126139;27;20200;-77
2022/04/12 02:46:30;;;;;;;5.50;2.92;;;;;;;;;;5123935;27;20721;-76
2022/04/12 02:48:57;;;;;;;3.08;2.83;;;;;;;;;;5129529;27;20648;-77
2022/04/12 02:51:25;;;;;;;3.65;2.50;;;;;;;;;;5134474;27;20551;-77
2022/04/12 02:53:54;;;;;;;3.15;2.85;;;;;;;;;;5119560;27;20200;-77
2022/04/12 02:56:21;;;;;;;4.97;3.25;;;;;;;;;;5117854;27;20193;-78
2022/04/12 02:58:48;;;;;;;2.80;2.55;;;;;;;;;;5123374;27;20671;-78
2022/04/12 03:01:15;;;;;;;3.70;3.08;;;;;;;;;;5121359;27;20651;-79
2022/04/12 03:03:42;;;;;;;3.90;3.50;;;;;;;;;;5126899;27;20223;-78
2022/04/12 03:06:09;;;;;;;5.55;3.42;;;;;;;;;;5113324;27;20232;-78
2022/04/12 03:08:38;;;;;;;3.63;3.33;;;;;;;;;;5116656;27;20201;-78
2022/04/12 03:11:05;;;;;;;3.78;3.45;;;;;;;;;;5125540;27;20215;-79
2022/04/12 03:13:32;;;;;;;3.20;2.88;;;;;;;;;;5131083;27;20196;-80
2022/04/12 03:15:59;;;;;;;4.07;3.50;;;;;;;;;;5125799;27;20184;-78
2022/04/12 03:18:26;;;;;;;3.60;3.10;;;;;;;;;;5139448;27;20210;-79
2022/04/12 03:20:54;;;;;;;3.42;2.83;;;;;;;;;;5113281;28;20651;-79
2022/04/12 03:23:21;;;;;;;4.15;3.15;;;;;;;;;;5127020;27;20674;-79
2022/04/12 03:25:50;;;;;;;3.30;2.72;;;;;;;;;;5128842;27;20555;-80
2022/04/12 03:28:17;;;;;;;2.63;2.42;;;;;;;;;;5112769;27;20229;-79
2022/04/12 03:30:44;;;;;;;4.75;3.50;;;;;;;;;;5118679;27;20196;-80
2022/04/12 03:33:11;;;;;;;3.80;2.75;;;;;;;;;;5128718;27;20188;-79
2022/04/12 03:35:38;;;;;;;3.55;2.83;;;;;;;;;;5124971;27;20658;-80
2022/04/12 03:38:05;;;;;;;3.80;2.95;;;;;;;;;;5130538;27;20202;-79
2022/04/12 03:40:33;;;;;;;3.10;2.90;;;;;;;;;;5127053;27;20212;-79
2022/04/12 03:43:02;;;;;;;5.72;2.97;;;;;;;;;;5126111;27;20192;-79
2022/04/12 03:45:29;;;;;;;5.20;3.47;;;;;;;;;;5121841;27;20215;-79
2022/04/12 03:47:56;;;;;;;2.70;2.20;;;;;;;;;;5121372;27;20651;-78
2022/04/12 03:50:24;;;;;;;4.47;3.38;;;;;;;;;;5112490;27;20215;-78
2022/04/12 03:52:51;;;;;;;3.58;2.88;;;;;;;;;;5112612;28;20475;-78
2022/04/12 03:55:30;;;;;;;3.80;2.90;;;;;;;;;;5118154;27;20204;-79
2022/04/12 03:57:57;;;;;;;3.35;3.05;;;;;;;;;;5126113;27;20199;-79
2022/04/12 04:00:26;;;;;;;4.03;2.90;;;;;;;;;;5124439;27;20273;-79
2022/04/12 04:02:53;;;;;;;3.83;3.50;;;;;;;;;;5127624;27;20246;-79
2022/04/12 04:05:20;;;;;;;3.60;3.30;;;;;;;;;;5113496;27;20200;-78
2022/04/12 04:07:47;;;;;;;3.15;2.55;;;;;;;;;;5114848;27;20200;-80
2022/04/12 04:10:14;;;;;;;4.03;3.60;;;;;;;;;;5125526;27;20203;-78
2022/04/12 04:12:42;;;;;;;3.95;2.90;;;;;;;;;;5124549;27;20579;-78
2022/04/12 04:15:12;;;;;;;4.75;3.42;;;;;;;;;;5126766;27;20191;-78
2022/04/12 04:17:40;;;;;;;3.30;2.97;;;;;;;;;;5138537;27;20192;-77
2022/04/12 04:20:07;;;;;;;3.40;2.90;;;;;;;;;;5124358;27;20193;-77
2022/04/12 04:22:35;;;;;;;4.22;3.40;;;;;;;;;;5112250;28;20193;-79
2022/04/12 04:25:02;;;;;;;3.67;3.08;;;;;;;;;;5111054;27;20197;-78
2022/04/12 04:27:30;;;;;;;3.25;2.83;;;;;;;;;;5115595;27;20216;-79
2022/04/12 04:29:58;;;;;;;3.72;3.25;;;;;;;;;;5130478;27;20336;-79
2022/04/12 04:32:25;;;;;;;3.13;2.58;;;;;;;;;;5122489;27;20544;-79
2022/04/12 04:34:53;;;;;;;4.03;3.03;;;;;;;;;;5129153;27;20566;-79
2022/04/12 04:37:20;;;;;;;4.35;3.90;;;;;;;;;;5114662;27;20216;-78
2022/04/12 04:39:47;;;;;;;4.60;3.63;;;;;;;;;;5126717;27;20197;-79
2022/04/12 04:42:14;;;;;;;3.55;2.65;;;;;;;;;;5112392;28;20192;-78
2022/04/12 04:44:41;;;;;;;3.35;2.90;;;;;;;;;;5119748;27;20207;-78
2022/04/12 04:47:08;;;;;;;3.83;3.00;;;;;;;;;;5125609;27;20212;-79
2022/04/12 04:49:35;;;;;;;4.57;2.92;;;;;;;;;;5120630;27;20204;-79
2022/04/12 04:52:04;;;;;;;2.92;2.35;;;;;;;;;;5112333;28;20189;-79
2022/04/12 04:54:31;;;;;;;4.15;3.35;;;;;;;;;;5111616;28;20189;-80
2022/04/12 04:56:58;;;;;;;4.55;2.83;;;;;;;;;;5115117;27;20193;-79
2022/04/12 04:59:25;;;;;;;3.92;2.50;;;;;;;;;;5124316;27;20202;-80
2022/04/12 05:01:52;;;;;;;4.05;2.90;;;;;;;;;;5122026;27;20193;-80
2022/04/12 05:04:20;;;;;;;3.40;2.58;;;;;;;;;;5128745;27;20647;-80
2022/04/12 05:06:47;;;;;;;4.90;2.22;;;;;;;;;;5124743;27;20247;-79
2022/04/12 05:09:15;;;;;;;3.15;2.58;;;;;;;;;;5120456;27;20192;-80
2022/04/12 05:11:42;;;;;;;3.95;2.55;;;;;;;;;;5127537;27;20200;-80
2022/04/12 05:14:09;;;;;;;2.25;2.05;;;;;;;;;;5119778;27;20203;-80
2022/04/12 05:16:36;;;;;;;2.85;2.65;;;;;;;;;;5118090;28;20196;-80
2022/04/12 05:19:03;;;;;;;2.80;2.40;;;;;;;;;;5118810;27;20196;-80
2022/04/12 05:21:31;;;;;;;3.53;2.67;;;;;;;;;;5125411;27;20643;-80
2022/04/12 05:23:58;;;;;;;2.60;2.40;;;;;;;;;;5132566;27;20662;-80
2022/04/12 05:26:26;;;;;;;2.50;2.30;;;;;;;;;;5125878;27;20209;-80
2022/04/12 05:28:53;;;;;;;2.78;2.35;;;;;;;;;;5121107;28;20220;-80
2022/04/12 05:31:20;;;;;;;4.50;3.22;;;;;;;;;;5123947;28;20199;-81
2022/04/12 05:33:47;;;;;;;2.63;2.42;;;;;;;;;;5124878;28;20211;-79
2022/04/12 05:36:15;;;;;;;3.75;3.13;;;;;;;;;;5116683;27;20690;-79
2022/04/12 05:38:42;;;;;;;3.35;2.15;;;;;;;;;;5131525;27;20203;-78
2022/04/12 05:41:09;;;;;;;5.35;3.13;;;;;;;;;;5131433;27;20195;-78
2022/04/12 05:43:37;;;;;;;3.85;3.13;;;;;;;;;;5134103;27;20207;-78
2022/04/12 05:46:04;;;;;;;4.97;3.08;;;;;;;;;;5131257;27;20219;-77
2022/04/12 05:48:31;;;;;;;4.40;2.90;;;;;;;;;;5128972;27;20212;-79
2022/04/12 05:50:58;;;;;;;3.70;3.30;;;;;;;;;;5116412;27;20629;-79
2022/04/12 05:53:26;;;;;;;2.75;2.55;;;;;;;;;;5127404;27;20691;-79
2022/04/12 05:55:53;;;;;;;4.68;3.47;;;;;;;;;;5130717;27;20192;-79
2022/04/12 05:58:20;;;;;;;3.60;3.15;;;;;;;;;;5131478;27;20662;-78
2022/04/12 06:00:48;;;;;;;3.45;3.15;;;;;;;;;;5131001;27;20204;-78
2022/04/12 06:03:15;;;;;;;4.07;3.17;;;;;;;;;;5125595;27;20558;-79
2022/04/12 06:05:42;;;;;;;2.97;2.63;;;;;;;;;;5124275;27;20203;-77
2022/04/12 06:08:10;;;;;;;4.90;2.78;;;;;;;;;;5127471;27;20687;-77
2022/04/12 06:10:37;;;;;;;3.75;2.58;;;;;;;;;;5129715;27;20528;-78
2022/04/12 06:13:04;;;;;;;2.25;2.05;;;;;;;;;;5123572;27;20222;-78
2022/04/12 06:15:31;;;;;;;3.15;2.75;;;;;;;;;;5124433;27;20566;-78
2022/04/12 06:17:59;;;;;;;2.88;2.55;;;;;;;;;;5124270;27;20200;-77
2022/04/12 06:20:27;;;;;;;4.32;2.38;;;;;;;;;;5124002;27;20667;-77
2022/04/12 06:22:54;;;;;;;2.38;2.05;;;;;;;;;;5126267;27;20515;-77
2022/04/12 06:25:21;;;;;;;2.10;1.88;;;;;;;;;;5134011;27;20249;-76
2022/04/12 06:27:51;;;;;;;3.40;2.05;;;;;;;;;;5127069;27;20232;-76
2022/04/12 06:30:19;;;;;;;5.65;2.58;;;;;;;;;;5124887;27;20208;-76
2022/04/12 06:32:46;;;;;;;3.20;2.90;;;;;;;;;;5135727;27;20331;-77
2022/04/12 06:35:15;;;;;;;2.95;2.60;;;;;;;;;;5130760;27;20200;-78
2022/04/12 06:37:43;;;;;;;3.97;2.72;;;;;;;;;;5129737;27;20298;-77
2022/04/12 06:40:11;;;;;;;2.70;2.50;;;;;;;;;;5134781;27;20199;-77
2022/04/12 06:42:38;;;;;;;2.50;2.30;;;;;;;;;;5116752;27;20201;-77
2022/04/12 06:45:06;;;;;;;2.83;2.25;;;;;;;;;;5121319;27;20203;-77
2022/04/12 06:47:33;;;;;;;4.40;2.47;;;;;;;;;;5118277;27;20200;-77
2022/04/12 06:50:01;;;;;;;3.15;2.85;;;;;;;;;;5130283;27;20554;-77
2022/04/12 06:52:29;;;;;;;2.30;2.10;;;;;;;;;;5130535;27;20200;-77
2022/04/12 06:54:56;;;;;;;4.30;2.40;;;;;;;;;;5127582;27;20613;-77
2022/04/12 06:57:23;;;;;;;3.70;2.40;;;;;;;;;;5122322;27;20192;-76
2022/04/12 06:59:51;;;;;;;3.80;2.78;;;;;;;;;;5122479;27;20197;-76
2022/04/12 07:02:18;;;;;;;3.00;2.45;;;;;;;;;;5126737;27;20294;-78
2022/04/12 07:04:45;;;;;;;2.05;1.85;;;;;;;;;;5126633;27;20681;-77
2022/04/12 07:07:12;;;;;;;3.00;2.30;;;;;;;;;;5134186;27;20212;-78
2022/04/12 07:09:41;;;;;;;3.55;2.67;;;;;;;;;;5123451;27;20939;-78
2022/04/12 07:12:09;;;;;;;3.88;2.00;;;;;;;;;;5130788;27;20882;-78
2022/04/12 07:14:36;;;;;;;3.25;2.15;;;;;;;;;;5128231;27;20192;-78
2022/04/12 07:17:05;;;;;;;3.05;2.25;;;;;;;;;;5128611;27;20196;-78
2022/04/12 07:19:32;;;;;;;2.35;1.90;;;;;;;;;;5124321;27;20655;-78
2022/04/12 07:21:59;;;;;;;2.65;2.28;;;;;;;;;;5133312;27;20204;-78
2022/04/12 07:24:26;;;;;;;2.58;2.10;;;;;;;;;;5114881;27;20659;-78
2022/04/12 07:26:55;;;;;;;2.42;2.17;;;;;;;;;;5122092;27;20219;-77
2022/04/12 07:29:22;;;;;;;5.93;2.17;;;;;;;;;;5112554;27;20221;-79
2022/04/12 07:31:49;;;;;;;2.10;1.90;;;;;;;;;;5130580;27;20523;-79
2022/04/12 07:34:16;;;;;;;5.05;2.38;;;;;;;;;;5125465;27;20677;-79
2022/04/12 07:36:47;;;;;;;2.20;2.00;;;;;;;;;;5127766;27;20659;-79
2022/04/12 07:39:15;;;;;;;2.50;2.20;;;;;;;;;;5127618;27;20706;-79
2022/04/12 07:41:42;;;;;;;2.60;2.40;;;;;;;;;;5126457;27;20551;-79
2022/04/12 07:44:11;;;;;;;2.15;1.73;;;;;;;;;;5123098;27;20212;-81
2022/04/12 07:46:38;;;;;;;4.45;2.42;;;;;;;;;;5122041;27;20223;-81
2022/04/12 07:49:05;;;;;;;3.95;1.92;;;;;;;;;;5128617;27;20211;-81
2022/04/12 07:51:32;;;;;;;2.90;2.10;;;;;;;;;;5129887;27;20531;-80
2022/04/12 07:54:01;;;;;;;2.78;2.10;;;;;;;;;;5126116;27;20192;-81
2022/04/12 07:56:28;;;;;;;3.15;2.05;;;;;;;;;;5119413;27;20247;-78
2022/04/12 07:58:55;;;;;;;1.83;1.70;;;;;;;;;;5123592;27;20197;-81
2022/04/12 08:01:23;;;;;;;3.15;1.70;;;;;;;;;;5128755;27;20200;-81
2022/04/12 08:03:50;;;;;;;2.00;1.80;;;;;;;;;;5123112;27;20199;-81
2022/04/12 08:06:18;;;;;;;2.85;2.03;;;;;;;;;;5130126;27;20203;-81
2022/04/12 08:08:45;;;;;;;2.33;1.80;;;;;;;;;;5128640;27;20212;-81
2022/04/12 08:11:12;;;;;;;2.10;1.90;;;;;;;;;;5121909;27;20651;-79
2022/04/12 08:13:39;;;;;;;2.42;1.95;;;;;;;;;;5116931;27;20707;-79
2022/04/12 08:16:08;;;;;;;3.20;2.25;;;;;;;;;;5120335;27;20555;-79
2022/04/12 08:18:37;;;;;;;2.28;2.03;;;;;;;;;;5128413;27;20647;-79
2022/04/12 08:21:04;;;;;;;2.90;2.20;;;;;;;;;;5124478;27;20188;-77
2022/04/12 08:23:31;;;;;;;2.53;1.95;;;;;;;;;;5133204;27;20361;-80
2022/04/12 08:25:58;;;;;;;2.30;2.00;;;;;;;;;;5130458;27;20192;-80
2022/04/12 08:28:25;;;;;;;2.17;1.60;;;;;;;;;;5122117;27;20224;-79
2022/04/12 08:30:52;;;;;;;2.95;1.90;;;;;;;;;;5119794;27;20681;-78
2022/04/12 08:33:19;;;;;;;2.10;1.90;;;;;;;;;;5130658;27;20559;-79
2022/04/12 08:35:48;;;;;;;2.60;1.90;;;;;;;;;;5118135;27;20227;-78
2022/04/12 08:38:15;;;;;;;2.80;2.20;;;;;;;;;;5130542;27;20679;-80
2022/04/12 08:40:42;;;;;;;3.80;2.28;;;;;;;;;;5124743;27;20631;-81
2022/04/12 08:43:09;;;;;;;1.95;1.73;;;;;;;;;;5120382;27;20228;-79
2022/04/12 08:45:37;;;;;;;2.38;1.83;;;;;;;;;;5126713;27;20615;-77
2022/04/12 08:48:07;;;;;;;2.38;1.45;;;;;;;;;;5132475;27;20212;-78
2022/04/12 08:50:34;;;;;;;2.13;1.92;;;;;;;;;;5129371;27;20192;-80
2022/04/12 08:53:04;;;;;;;3.92;2.42;;;;;;;;;;5132397;27;20188;-77
2022/04/12 08:55:33;;;;;;;2.35;1.67;;;;;;;;;;5120085;27;20204;-78
2022/04/12 08:58:00;;;;;;;5.60;1.85;;;;;;;;;;5120657;27;20188;-77
2022/04/12 09:00:27;;;;;;;3.60;2.47;;;;;;;;;;5114405;27;20196;-77
2022/04/12 09:02:58;;;;;;;1.70;1.48;;;;;;;;;;5125477;27;20210;-78
2022/04/12 09:05:26;;;;;;;2.65;2.00;;;;;;;;;;5125143;27;20206;-77
2022/04/12 09:07:53;;;;;;;3.10;2.13;;;;;;;;;;5127677;27;20327;-78
2022/04/12 09:10:25;;;;;;;2.42;1.58;;;;;;;;;;5126865;27;20207;-77
2022/04/12 09:12:53;;;;;;;2.42;1.70;;;;;;;;;;5116355;27;20284;-77
2022/04/12 09:15:23;;;;;;;3.97;2.47;;;;;;;;;;5120306;27;20231;-78
2022/04/12 09:17:50;;;;;;;3.15;2.05;;;;;;;;;;5138549;27;20192;-78
2022/04/12 09:20:19;;;;;;;1.70;1.55;;;;;;;;;;5121592;27;20199;-78
2022/04/12 09:22:46;;;;;;;2.65;1.95;;;;;;;;;;5108580;28;20257;-79
2022/04/12 09:25:14;;;;;;;2.15;1.65;;;;;;;;;;5124032;28;20203;-79
2022/04/12 09:27:44;;;;;;;2.55;1.98;;;;;;;;;;5125962;28;20243;-78
2022/04/12 09:30:12;;;;;;;3.00;2.05;;;;;;;;;;5107929;28;20205;-79
2022/04/12 09:32:40;;;;;;;1.88;1.58;;;;;;;;;;5128306;28;20203;-79
2022/04/12 09:35:08;;;;;;;3.65;1.50;;;;;;;;;;5116121;27;20544;-79
2022/04/12 09:37:35;;;;;;;4.18;1.77;;;;;;;;;;5128658;27;20219;-78
2022/04/12 09:40:07;;;;;;;2.17;1.88;;;;;;;;;;5119281;28;20673;-78
2022/04/12 09:42:47;;;;;;;3.70;1.80;;;;;;;;;;5122926;28;20581;-79
2022/04/12 09:45:16;;;;;;;1.83;1.60;;;;;;;;;;5120353;28;20314;-79
2022/04/12 09:47:43;;;;;;;2.75;2.30;;;;;;;;;;5124737;28;20215;-78
2022/04/12 09:50:11;;;;;;;2.45;1.63;;;;;;;;;;5117462;28;20208;-79
2022/04/12 09:52:39;;;;;;;2.35;1.33;;;;;;;;;;5120546;28;20207;-79
2022/04/12 09:55:07;;;;;;;1.70;1.55;;;;;;;;;;5118451;27;20200;-79
2022/04/12 09:57:34;;;;;;;4.50;1.60;;;;;;;;;;5121562;28;20215;-79
2022/04/12 10:00:04;;;;;;;2.00;1.50;;;;;;;;;;5112181;28;20204;-79
2022/04/12 10:02:33;;;;;;;2.42;1.90;;;;;;;;;;5119609;27;20668;-79
2022/04/12 10:05:03;;;;;;;2.47;1.77;;;;;;;;;;5115306;28;20250;-78
2022/04/12 10:07:33;;;;;;;2.92;2.53;;;;;;;;;;5120912;27;20720;-79
2022/04/12 10:10:03;;;;;;;1.63;1.30;;;;;;;;;;5125766;28;20210;-79
2022/04/12 10:12:32;;;;;;;2.03;1.40;;;;;;;;;;5109242;27;20219;-79
2022/04/12 10:14:59;;;;;;;2.38;1.35;;;;;;;;;;5116669;27;20709;-78
2022/04/12 10:17:28;;;;;;;1.55;1.45;;;;;;;;;;5119277;27;20196;-78
2022/04/12 10:19:56;;;;;;;2.28;1.33;;;;;;;;;;5115785;27;20218;-79
2022/04/12 10:22:26;;;;;;;2.50;1.55;;;;;;;;;;5112142;27;20228;-78
2022/04/12 10:24:53;;;;;;;2.50;1.40;;;;;;;;;;5128870;27;20207;-78
2022/04/12 10:27:23;;;;;;;2.30;1.70;;;;;;;;;;5122356;27;20209;-79
2022/04/12 10:30:05;;;;;;;1.52;1.30;;;;;;;;;;5125440;27;20249;-79
2022/04/12 10:32:33;;;;;;;3.25;1.60;;;;;;;;;;5126485;27;20203;-79
2022/04/12 10:35:01;;;;;;;1.50;1.25;;;;;;;;;;5124029;27;20416;-79
2022/04/12 10:37:29;;;;;;;1.70;1.52;;;;;;;;;;5124933;27;20192;-79
2022/04/12 10:39:57;;;;;;;1.77;1.30;;;;;;;;;;5129805;27;20211;-79
2022/04/12 10:42:26;;;;;;;2.35;1.20;;;;;;;;;;5121234;27;20196;-79
2022/04/12 10:44:55;;;;;;;2.30;1.17;;;;;;;;;;5126065;27;20203;-78
2022/04/12 10:47:24;;;;;;;1.95;1.40;;;;;;;;;;5121832;27;20201;-78
2022/04/12 10:49:57;;;;;;;2.13;1.30;;;;;;;;;;5131116;27;20199;-78
2022/04/12 10:52:38;;;;;;;2.00;1.27;;;;;;;;;;5127666;27;20200;-78
2022/04/12 10:55:06;;;;;;;1.95;1.40;;;;;;;;;;5127159;27;20291;-77
2022/04/12 10:57:33;;;;;;;1.75;1.20;;;;;;;;;;5127821;27;20199;-78
2022/04/12 11:00:05;;;;;;;1.95;1.48;;;;;;;;;;5124002;27;20204;-79
2022/04/12 11:02:36;;;;;;;3.15;1.80;;;;;;;;;;5128483;27;20218;-78
2022/04/12 11:05:05;;;;;;;3.35;1.45;;;;;;;;;;5125173;27;20200;-79
2022/04/12 11:07:34;;;;;;;1.60;1.25;;;;;;;;;;5118360;27;20203;-78
2022/04/12 11:10:08;;;;;;;1.27;1.05;;;;;;;;;;5126322;27;20196;-77
2022/04/12 11:12:42;;;;;;;1.60;1.17;;;;;;;;;;5128560;27;20196;-78
2022/04/12 11:15:30;;;;;;;1.63;1.35;;;;;;;;;;5121091;27;20920;-78
2022/04/12 11:18:10;;;;;;;1.63;1.35;;;;;;;;;;5117909;27;20826;-79
2022/04/12 11:20:39;;;;;;;1.45;1.10;;;;;;;;;;5128879;27;20222;-78
2022/04/12 11:23:08;;;;;;;1.70;1.15;;;;;;;;;;5126925;27;20204;-78
2022/04/12 11:25:36;;;;;;;2.08;1.40;;;;;;;;;;5124258;27;20723;-79
2022/04/12 11:28:05;;;;;;;1.58;1.30;;;;;;;;;;5118943;27;20215;-78
2022/04/12 11:30:32;;;;;;;2.88;1.48;;;;;;;;;;5119401;27;20204;-78
2022/04/12 11:32:59;;;;;;;2.83;1.60;;;;;;;;;;5128626;27;20283;-78
2022/04/12 11:35:26;;;;;;;2.38;1.58;;;;;;;;;;5124008;27;20305;-78
2022/04/12 11:37:57;;;;;;;3.65;1.20;;;;;;;;;;5124682;27;20189;-84
2022/04/12 11:40:26;;;;;;;2.95;1.52;;;;;;;;;;5134865;27;20207;-80
2022/04/12 11:42:56;;;;;;;5.07;1.20;;;;;;;;;;5130653;27;20573;-80
2022/04/12 11:45:31;;;;;;;1.30;1.00;;;;;;;;;;5123414;27;20204;-79
2022/04/12 11:47:58;;;;;;;1.38;1.02;;;;;;;;;;5131141;27;20223;-80
2022/04/12 11:50:25;;;;;;;1.38;0.98;;;;;;;;;;5120133;27;20918;-79
2022/04/12 11:52:52;;;;;;;3.05;1.55;;;;;;;;;;5125617;27;20699;-80
2022/04/12 11:55:21;;;;;;;2.53;1.10;;;;;;;;;;5128065;27;20888;-77
2022/04/12 11:57:50;;;;;;;1.30;1.10;;;;;;;;;;5117832;27;20197;-78
2022/04/12 12:00:18;;;;;;;1.45;0.90;;;;;;;;;;5115409;27;20812;-80
2022/04/12 12:02:45;;;;;;;2.55;1.20;;;;;;;;;;5131812;27;20656;-84
2022/04/12 12:05:13;;;;;;;5.50;1.30;;;;;;;;;;5121287;27;20447;-82
2022/04/12 12:07:40;;;;;;;2.65;1.25;;;;;;;;;;5126469;27;20412;-80
2022/04/12 12:10:09;;;;;;;2.75;1.30;;;;;;;;;;5121801;27;20215;-78
2022/04/12 12:12:39;;;;;;;2.47;1.20;;;;;;;;;;5134265;27;20204;-81
2022/04/12 12:15:16;;;;;;;5.25;1.52;;;;;;;;;;5130709;27;20192;-80
2022/04/12 12:17:45;;;;;;;5.43;1.25;;;;;;;;;;5129834;27;20258;-81
2022/04/12 12:20:12;;;;;;;5.20;1.30;;;;;;;;;;5115762;27;20406;-82
2022/04/12 12:22:40;;;;;;;4.05;1.42;;;;;;;;;;5118287;27;20455;-81
2022/04/12 12:25:08;;;;;;;3.25;1.15;;;;;;;;;;5123932;27;20193;-81
2022/04/12 12:27:36;;;;;;;3.85;1.25;;;;;;;;;;5124734;27;20216;-82
2022/04/12 12:30:07;;;;;;;2.30;1.35;;;;;;;;;;5120332;27;20224;-81
2022/04/12 12:32:36;;;;;;;1.90;0.93;;;;;;;;;;5124184;27;20220;-81
2022/04/12 12:35:05;;;;;;;1.75;1.42;;;;;;;;;;5127811;27;20644;-81
2022/04/12 12:37:32;;;;;;;1.80;1.25;;;;;;;;;;5132008;27;20277;-81
2022/04/12 12:39:59;;;;;;;2.03;1.02;;;;;;;;;;5130484;27;20225;-81
2022/04/12 12:42:34;;;;;;;4.63;1.40;;;;;;;;;;5121909;27;20199;-81
2022/04/12 12:45:10;;;;;;;1.30;0.90;;;;;;;;;;5121287;27;20206;-80
2022/04/12 12:47:37;;;;;;;1.90;1.13;;;;;;;;;;5120006;27;20234;-79
2022/04/12 12:50:08;;;;;;;1.20;1.10;;;;;;;;;;5130540;27;20226;-83
2022/04/12 12:52:35;;;;;;;2.90;1.20;;;;;;;;;;5126884;27;20441;-80
2022/04/12 12:55:03;;;;;;;1.77;1.10;;;;;;;;;;5130050;27;20453;-81
2022/04/12 12:57:40;;;;;;;1.42;1.10;;;;;;;;;;5124762;27;20199;-85
2022/04/12 13:00:09;;;;;;;4.20;1.15;;;;;;;;;;5119608;27;20251;-80
2022/04/12 13:02:37;;;;;;;1.75;1.35;;;;;;;;;;5123398;27;20208;-81
2022/04/12 13:05:05;;;;;;;2.58;1.30;;;;;;;;;;5127648;27;20193;-81
2022/04/12 13:07:34;;;;;;;1.88;1.20;;;;;;;;;;5125117;27;20651;-81
2022/04/12 13:10:07;;;;;;;1.40;1.00;;;;;;;;;;5122466;27;20315;-81
2022/04/12 13:12:34;;;;;;;2.15;1.00;;;;;;;;;;5127206;27;20570;-81
2022/04/12 13:15:01;;;;;;;1.67;1.10;;;;;;;;;;5127291;27;20338;-81
2022/04/12 13:17:28;;;;;;;1.20;0.90;;;;;;;;;;5143120;27;20274;-82
2022/04/12 13:19:57;;;;;;;1.95;1.20;;;;;;;;;;5129666;27;20210;-81
2022/04/12 13:22:24;;;;;;;1.33;1.05;;;;;;;;;;5115132;27;20205;-81
2022/04/12 13:24:51;;;;;;;1.30;1.00;;;;;;;;;;5121270;27;20206;-81
2022/04/12 13:27:18;;;;;;;1.88;1.40;;;;;;;;;;5116387;28;20202;-82
2022/04/12 13:29:45;;;;;;;2.35;0.93;;;;;;;;;;5125413;28;20227;-81
2022/04/12 13:32:12;;;;;;;1.65;1.10;;;;;;;;;;5119273;27;20193;-82
2022/04/12 13:34:40;;;;;;;2.28;1.08;;;;;;;;;;5123167;28;20193;-80
2022/04/12 13:37:09;;;;;;;1.90;1.30;;;;;;;;;;5121555;27;20568;-81
2022/04/12 13:39:36;;;;;;;2.28;1.10;;;;;;;;;;5128214;27;20557;-81
2022/04/12 13:42:05;;;;;;;1.20;0.90;;;;;;;;;;5129383;27;20204;-81
2022/04/12 13:44:32;;;;;;;1.25;0.82;;;;;;;;;;5119997;28;20198;-81
2022/04/12 13:47:00;;;;;;;1.55;1.08;;;;;;;;;;5113611;28;20293;-81
2022/04/12 13:49:27;;;;;;;1.30;1.08;;;;;;;;;;5122168;27;20624;-82
2022/04/12 13:51:54;;;;;;;2.10;1.25;;;;;;;;;;5116288;27;20203;-81
2022/04/12 13:54:23;;;;;;;2.38;1.05;;;;;;;;;;5134519;27;20625;-82
2022/04/12 13:56:50;;;;;;;1.60;1.20;;;;;;;;;;5130672;27;20227;-81
2022/04/12 13:59:17;;;;;;;1.60;1.20;;;;;;;;;;5132549;27;20671;-82
2022/04/12 14:01:46;;;;;;;2.60;1.20;;;;;;;;;;5122483;27;20235;-81
2022/04/12 14:04:13;;;;;;;1.55;1.02;;;;;;;;;;5131407;27;20196;-82
2022/04/12 14:06:44;;;;;;;1.15;0.90;;;;;;;;;;5124606;27;20206;-79
2022/04/12 14:09:11;;;;;;;4.20;2.15;;;;;;;;;;5148639;27;20570;-81
2022/04/12 14:11:41;;;;;;;2.17;1.30;;;;;;;;;;5132396;27;20198;-80
2022/04/12 14:14:11;;;;;;;1.52;1.17;;;;;;;;;;5128118;27;20207;-82
2022/04/12 14:16:38;;;;;;;2.10;1.10;;;;;;;;;;5124513;27;20547;-81
2022/04/12 14:19:06;;;;;;;1.20;0.90;;;;;;;;;;5128221;27;20223;-82
2022/04/12 14:21:33;;;;;;;1.55;1.30;;;;;;;;;;5117611;27;20205;-81
2022/04/12 14:24:01;;;;;;;1.52;1.30;;;;;;;;;;5124015;27;20206;-83
2022/04/12 14:26:28;;;;;;;3.60;1.63;;;;;;;;;;5132325;27;20204;-83
2022/04/12 14:28:56;;;;;;;1.65;1.10;;;;;;;;;;5114260;27;20223;-81
2022/04/12 16:49:23;;;;;;;2.85;1.02;;;;;;;;;;4995663;28;20960;-77
2022/04/12 16:51:50;;;;;;;3.78;1.02;;;;;;;;;;5004276;28;20203;-76
2022/04/12 16:54:17;;;;;;;1.52;1.23;;;;;;;;;;5003813;28;20208;-77
2022/04/12 16:56:45;;;;;;;2.35;1.20;;;;;;;;;;4989149;28;20201;-75
2022/04/12 16:59:12;;;;;;;1.50;1.08;;;;;;;;;;5002398;28;20204;-77
2022/04/12 17:01:39;;;;;;;1.73;0.80;;;;;;;;;;5000443;28;20196;-74
2022/04/12 17:04:06;;;;;;;1.20;1.00;;;;;;;;;;4995733;28;20214;-76
2022/04/12 17:06:39;;;;;;;1.50;1.02;;;;;;;;;;5008288;28;20294;-78
2022/04/12 17:09:06;;;;;;;1.50;1.20;;;;;;;;;;5007931;28;20269;-75